createdAt,value
2019-01-14T00:00:18.641Z,10.26
2019-01-14T00:01:11.476Z,10.2
2019-01-14T00:02:09.310Z,10.29
2019-01-14T00:03:03.310Z,10.25
2019-01-14T00:04:07.129Z,10.26
2019-01-14T00:05:05.746Z,10.26
2019-01-14T00:06:00.993Z,10.22
2019-01-14T00:09:31.023Z,10.28
2019-01-14T00:10:19.308Z,10.25
2019-01-14T00:11:16.628Z,10.28
2019-01-14T00:12:15.037Z,10.34
2019-01-14T00:13:08.028Z,10.34
2019-01-14T00:14:02.413Z,10.28
2019-01-14T00:15:01.517Z,10.34
2019-01-14T00:16:11.134Z,10.39
2019-01-14T00:17:08.238Z,10.36
2019-01-14T00:18:03.341Z,10.35
2019-01-14T00:18:56.070Z,10.34
2019-01-14T00:19:48.508Z,10.32
2019-01-14T00:20:46.967Z,10.35
2019-01-14T00:21:44.218Z,10.28
2019-01-14T00:31:04.335Z,10.32
2019-01-14T00:31:59.400Z,10.42
2019-01-14T00:32:54.223Z,10.49
2019-01-14T00:33:56.236Z,10.46
2019-01-14T00:34:52.124Z,10.49
2019-01-14T00:35:47.468Z,10.49
2019-01-14T00:36:43.406Z,10.47
2019-01-14T00:37:38.272Z,10.47
2019-01-14T00:38:31.788Z,10.43
2019-01-14T00:39:32.449Z,10.52
2019-01-14T00:40:28.666Z,10.49
2019-01-14T00:41:26.607Z,10.44
2019-01-14T00:42:20.554Z,10.49
2019-01-14T00:43:19.002Z,10.38
2019-01-14T00:44:12.672Z,10.32
2019-01-14T00:45:09.686Z,10.35
2019-01-14T00:46:04.424Z,10.36
2019-01-14T00:47:00.790Z,10.38
2019-01-14T00:48:03.750Z,10.32
2019-01-14T00:49:03.396Z,10.32
2019-01-14T00:50:01.272Z,10.26
2019-01-14T00:50:58.939Z,10.26
2019-01-14T00:51:53.451Z,10.31
2019-01-14T00:52:50.282Z,10.26
2019-01-14T00:53:47.811Z,10.28
2019-01-14T00:54:42.299Z,10.26
2019-01-14T00:55:44.187Z,10.28
2019-01-14T00:56:41.867Z,10.39
2019-01-14T00:57:38.146Z,10.31
2019-01-14T00:58:34.352Z,10.26
2019-01-14T00:59:35.655Z,10.35
2019-01-14T01:00:28.173Z,10.32
2019-01-14T01:05:46.297Z,10.39
2019-01-14T01:06:41.776Z,10.36
2019-01-14T01:07:41.464Z,10.36
2019-01-14T01:08:36.456Z,10.34
2019-01-14T01:09:33.089Z,10.34
2019-01-14T01:10:30.149Z,10.38
2019-01-14T01:11:23.711Z,10.31
2019-01-14T01:12:18.640Z,10.36
2019-01-14T01:13:18.579Z,10.42
2019-01-14T01:14:16.862Z,10.36
2019-01-14T01:15:10.852Z,10.32
2019-01-14T01:16:06.657Z,10.29
2019-01-14T01:17:03.553Z,10.35
2019-01-14T01:17:57.372Z,10.35
2019-01-14T01:18:51.950Z,10.35
2019-01-14T01:19:49.469Z,10.35
2019-01-14T01:20:44.606Z,10.36
2019-01-14T01:21:41.009Z,10.28
2019-01-14T01:22:34.147Z,10.26
2019-01-14T01:23:32.407Z,10.28
2019-01-14T01:24:25.639Z,10.26
2019-01-14T01:25:20.870Z,10.17
2019-01-14T01:26:15.990Z,10.24
2019-01-14T01:27:18.162Z,10.28
2019-01-14T01:28:16.294Z,10.26
2019-01-14T01:29:13.747Z,10.16
2019-01-14T01:30:11.765Z,10.25
2019-01-14T01:31:07.644Z,10.11
2019-01-14T01:32:00.608Z,10.16
2019-01-14T01:33:06.494Z,10.02
2019-01-14T01:34:08.391Z,10.01
2019-01-14T01:35:04.551Z,10.13
2019-01-14T01:36:00.281Z,10.16
2019-01-14T01:37:00.394Z,10.13
2019-01-14T01:37:51.997Z,10.16
2019-01-14T01:38:44.333Z,10.17
2019-01-14T01:39:24.988Z,10.18
2019-01-14T01:40:07.449Z,10.18
2019-01-14T01:40:48.444Z,10.14
2019-01-14T01:41:34.350Z,10.17
2019-01-14T01:42:19.112Z,10.17
2019-01-14T01:43:00.525Z,10.06
2019-01-14T01:43:41.526Z,9.98
2019-01-14T01:44:22.278Z,10.06
2019-01-14T01:45:07.365Z,10.13
2019-01-14T01:45:50.711Z,10.2
2019-01-14T01:46:35.875Z,10.24
2019-01-14T01:47:17.220Z,10.28
2019-01-14T01:48:06.120Z,10.32
2019-01-14T01:48:54.404Z,10.26
2019-01-14T01:49:45.315Z,10.36
2019-01-14T01:50:28.949Z,10.34
2019-01-14T01:51:11.478Z,10.25
2019-01-14T01:52:00.108Z,10.25
2019-01-14T01:52:41.044Z,10.11
2019-01-14T01:53:21.534Z,10.1
2019-01-14T01:54:04.743Z,10.06
2019-01-14T01:54:47.965Z,10.04
2019-01-14T01:55:31.602Z,10.02
2019-01-14T01:56:14.590Z,10.02
2019-01-14T01:57:58.973Z,10.02
2019-01-14T01:58:53.345Z,10.02
2019-01-14T01:59:50.837Z,10.01
2019-01-14T02:00:47.021Z,10.01
2019-01-14T02:01:43.399Z,10.01
2019-01-14T02:02:41.300Z,10.02
2019-01-14T02:03:36.544Z,10.06
2019-01-14T02:04:34.054Z,10.02
2019-01-14T02:05:27.910Z,9.99
2019-01-14T02:06:22.334Z,10.04
2019-01-14T02:07:16.862Z,10.07
2019-01-14T02:08:15.613Z,9.96
2019-01-14T02:09:09.589Z,9.89
2019-01-14T02:10:06.520Z,9.89
2019-01-14T02:11:03.844Z,9.92
2019-01-14T02:11:59.472Z,9.81
2019-01-14T02:12:54.340Z,9.88
2019-01-14T02:18:21.078Z,9.85
2019-01-14T02:19:16.108Z,9.8
2019-01-14T02:20:14.785Z,9.74
2019-01-14T02:21:09.195Z,9.77
2019-01-14T02:22:01.549Z,9.71
2019-01-14T02:22:56.255Z,9.75
2019-01-14T02:23:58.331Z,9.73
2019-01-14T02:24:54.900Z,9.7
2019-01-14T02:25:51.953Z,9.71
2019-01-14T02:26:45.811Z,9.67
2019-01-14T02:27:41.258Z,9.56
2019-01-14T02:28:43.885Z,9.49
2019-01-14T02:29:43.312Z,9.48
2019-01-14T02:30:47.970Z,9.53
2019-01-14T02:31:43.606Z,9.53
2019-01-14T02:32:44.017Z,9.56
2019-01-14T02:33:39.185Z,9.55
2019-01-14T02:34:34.743Z,9.59
2019-01-14T02:35:37.516Z,9.63
2019-01-14T02:36:49.508Z,9.63
2019-01-14T02:37:49.331Z,9.7
2019-01-14T02:38:43.210Z,9.65
2019-01-14T02:39:56.968Z,9.62
2019-01-14T02:40:59.618Z,9.68
2019-01-14T02:45:36.229Z,9.71
2019-01-14T02:46:29.407Z,9.65
2019-01-14T02:47:25.742Z,9.8
2019-01-14T02:48:19.896Z,9.8
2019-01-14T02:49:13.233Z,9.7
2019-01-14T02:50:06.542Z,9.8
2019-01-14T02:51:01.182Z,9.8
2019-01-14T02:51:54.615Z,9.75
2019-01-14T02:52:48.749Z,9.85
2019-01-14T02:53:51.701Z,9.81
2019-01-14T02:58:02.735Z,9.92
2019-01-14T02:58:57.994Z,9.93
2019-01-14T02:59:53.944Z,9.99
2019-01-14T03:00:50.046Z,10.01
2019-01-14T03:01:46.558Z,10.02
2019-01-14T03:02:42.005Z,10.06
2019-01-14T03:03:38.065Z,9.99
2019-01-14T03:04:34.107Z,10.07
2019-01-14T03:05:28.528Z,10.06
2019-01-14T03:06:37.309Z,10.17
2019-01-14T03:08:34.904Z,10.16
2019-01-14T03:09:30.739Z,10.09
2019-01-14T03:10:24.279Z,10.14
2019-01-14T03:11:18.894Z,10.13
2019-01-14T03:12:13.531Z,10.13
2019-01-14T03:13:09.186Z,10.04
2019-01-14T03:14:05.643Z,10.06
2019-01-14T03:15:07.499Z,10.07
2019-01-14T03:16:08.116Z,10.09
2019-01-14T03:17:04.681Z,10.06
2019-01-14T03:19:10.927Z,10.09
2019-01-14T03:20:12.396Z,10.06
2019-01-14T03:21:09.621Z,10.09
2019-01-14T03:22:09.712Z,10.07
2019-01-14T03:23:04.107Z,10.04
2019-01-14T03:24:11.152Z,9.98
2019-01-14T03:25:09.106Z,9.98
2019-01-14T03:26:09.724Z,9.95
2019-01-14T03:27:12.084Z,9.96
2019-01-14T03:28:06.677Z,10.06
2019-01-14T03:30:06.040Z,10.04
2019-01-14T03:31:11.946Z,9.91
2019-01-14T03:32:08.522Z,9.85
2019-01-14T03:33:05.195Z,9.83
2019-01-14T03:33:59.803Z,9.86
2019-01-14T03:34:58.248Z,9.8
2019-01-14T03:36:01.057Z,9.98
2019-01-14T03:36:55.956Z,9.89
2019-01-14T03:42:24.107Z,9.98
2019-01-14T03:43:23.757Z,9.98
2019-01-14T03:44:19.943Z,9.89
2019-01-14T03:45:30.483Z,9.86
2019-01-14T03:46:41.216Z,9.91
2019-01-14T03:47:33.990Z,9.93
2019-01-14T03:48:32.445Z,9.99
2019-01-14T03:49:33.190Z,9.92
2019-01-14T03:50:29.935Z,9.93
2019-01-14T03:51:31.073Z,9.95
2019-01-14T03:52:26.796Z,9.91
2019-01-14T03:53:24.413Z,9.95
2019-01-14T03:57:03.850Z,9.74
2019-01-14T03:57:59.313Z,9.7
2019-01-14T03:58:55.439Z,9.62
2019-01-14T03:59:52.736Z,9.65
2019-01-14T04:00:50.496Z,9.63
2019-01-14T04:01:45.297Z,9.63
2019-01-14T04:02:41.881Z,9.7
2019-01-14T04:03:52.080Z,9.73
2019-01-14T04:05:03.750Z,9.67
2019-01-14T04:05:56.432Z,9.68
2019-01-14T04:06:49.923Z,9.55
2019-01-14T04:07:45.257Z,9.53
2019-01-14T04:08:39.048Z,9.6
2019-01-14T04:09:32.754Z,9.62
2019-01-14T04:20:30.598Z,9.55
2019-01-14T04:21:25.953Z,9.45
2019-01-14T04:22:22.613Z,9.5
2019-01-14T04:23:21.141Z,9.42
2019-01-14T04:26:42.738Z,9.4
2019-01-14T04:27:40.142Z,9.27
2019-01-14T04:28:37.610Z,9.24
2019-01-14T05:19:11.878Z,8.98
2019-01-14T05:20:11.382Z,8.96
2019-01-14T05:21:03.794Z,9.04
2019-01-14T05:24:07.767Z,9.08
2019-01-14T05:25:05.941Z,9.1
2019-01-14T05:31:17.406Z,9.49
2019-01-14T05:32:13.593Z,9.41
2019-01-14T05:33:22.934Z,9.4
2019-01-14T05:34:19.856Z,9.5
2019-01-14T05:35:14.270Z,9.62
2019-01-14T05:36:12.331Z,9.58
2019-01-14T05:37:06.859Z,9.67
2019-01-14T05:38:03.193Z,9.68
2019-01-14T05:39:10.996Z,9.74
2019-01-14T05:40:08.036Z,9.68
2019-01-14T05:41:05.855Z,9.74
2019-01-14T05:42:01.751Z,9.71
2019-01-14T05:42:57.370Z,9.7
2019-01-14T05:45:02.674Z,9.75
2019-01-14T05:46:06.353Z,9.75
2019-01-14T05:47:07.209Z,9.77
2019-01-14T05:48:01.424Z,9.81
2019-01-14T05:48:59.601Z,9.77
2019-01-14T05:59:30.094Z,9.92
2019-01-14T06:00:26.793Z,9.78
2019-01-14T06:01:20.725Z,9.78
2019-01-14T06:02:16.134Z,9.68
2019-01-14T06:03:10.477Z,9.78
2019-01-14T06:04:06.978Z,9.73
2019-01-14T06:05:04.588Z,9.8
2019-01-14T06:05:59.817Z,9.75
2019-01-14T06:06:53.219Z,9.7
2019-01-14T06:07:49.703Z,9.75
2019-01-14T06:08:46.429Z,9.75
2019-01-14T06:09:43.002Z,9.62
2019-01-14T06:10:38.348Z,9.7
2019-01-14T06:11:36.935Z,9.6
2019-01-14T06:12:33.209Z,9.5
2019-01-14T06:13:32.274Z,9.55
2019-01-14T06:14:29.971Z,9.56
2019-01-14T06:15:34.606Z,9.5
2019-01-14T06:17:00.204Z,9.62
2019-01-14T06:18:01.033Z,9.67
2019-01-14T06:19:07.161Z,9.7
2019-01-14T06:28:35.700Z,9.49
2019-01-14T06:32:22.332Z,9.56
2019-01-14T06:33:24.304Z,9.35
2019-01-14T06:34:24.766Z,9.5
2019-01-14T06:35:24.668Z,9.59
2019-01-14T06:36:21.578Z,9.49
2019-01-14T06:37:19.045Z,9.58
2019-01-14T06:38:17.005Z,9.4
2019-01-14T06:39:14.583Z,9.42
2019-01-14T06:40:15.106Z,9.35
2019-01-14T06:41:32.036Z,9.53
2019-01-14T06:42:24.819Z,9.62
2019-01-14T06:43:23.779Z,9.42
2019-01-14T06:44:29.155Z,9.38
2019-01-14T06:45:35.109Z,9.38
2019-01-14T06:54:35.106Z,9.49
2019-01-14T06:55:37.163Z,9.53
2019-01-14T06:56:35.875Z,9.58
2019-01-14T06:57:29.545Z,9.55
2019-01-14T06:58:48.909Z,9.52
2019-01-14T06:59:45.799Z,9.52
2019-01-14T07:00:41.696Z,9.59
2019-01-14T07:04:34.562Z,9.73
2019-01-14T07:05:48.648Z,9.71
2019-01-14T07:19:32.602Z,9.73
2019-01-14T07:28:53.734Z,9.68
2019-01-14T07:29:56.294Z,9.6
2019-01-14T07:30:51.643Z,9.58
2019-01-14T07:31:50.296Z,9.52
2019-01-14T07:32:46.109Z,9.52
2019-01-14T07:33:48.453Z,9.62
2019-01-14T07:34:48.582Z,9.55
2019-01-14T07:35:46.748Z,9.52
2019-01-14T07:36:43.868Z,9.59
2019-01-14T07:37:41.288Z,9.67
2019-01-14T07:38:40.359Z,9.63
2019-01-14T07:39:38.371Z,9.67
2019-01-14T07:40:40.678Z,9.68
2019-01-14T07:41:39.039Z,9.78
2019-01-14T07:42:36.834Z,9.88
2019-01-14T07:43:39.649Z,9.91
2019-01-14T07:44:38.903Z,10.04
2019-01-14T07:45:40.309Z,10.06
2019-01-14T07:46:40.588Z,9.98
2019-01-14T07:47:49.824Z,10.04
2019-01-14T07:48:53.020Z,10.01
2019-01-14T07:49:54.996Z,10.02
2019-01-14T07:50:58.584Z,10.04
2019-01-14T07:52:06.855Z,10.02
2019-01-14T07:53:12.037Z,9.98
2019-01-14T07:54:11.585Z,9.95
2019-01-14T07:55:16.285Z,9.89
2019-01-14T07:57:01.904Z,9.73
2019-01-14T07:58:46.131Z,9.52
2019-01-14T07:59:44.484Z,9.58
2019-01-14T08:00:49.631Z,9.67
2019-01-14T08:02:48.402Z,9.71
2019-01-14T08:03:51.806Z,9.71
2019-01-14T08:04:54.271Z,9.73
2019-01-14T08:05:57.108Z,9.74
2019-01-14T08:07:01.943Z,9.68
2019-01-14T08:08:00.675Z,9.71
2019-01-14T08:08:58.494Z,9.7
2019-01-14T08:10:03.111Z,9.67
2019-01-14T08:11:41.939Z,9.63
2019-01-14T08:12:40.042Z,9.63
2019-01-14T08:13:39.353Z,9.63
2019-01-14T08:14:42.777Z,9.59
2019-01-14T08:15:39.321Z,9.67
2019-01-14T08:16:37.381Z,9.63
2019-01-14T08:17:37.543Z,9.65
2019-01-14T08:18:47.321Z,9.74
2019-01-14T08:19:50.360Z,9.75
2019-01-14T08:20:47.440Z,9.89
2019-01-14T08:21:45.322Z,9.86
2019-01-14T08:22:40.718Z,9.85
2019-01-14T08:23:36.445Z,9.98
2019-01-14T08:24:36.583Z,9.93
2019-01-14T08:25:34.871Z,9.89
2019-01-14T08:26:34.945Z,9.96
2019-01-14T08:27:42.094Z,9.88
2019-01-14T08:30:12.365Z,10.01
2019-01-14T08:31:19.055Z,9.95
2019-01-14T08:32:21.485Z,9.99
2019-01-14T08:33:37.326Z,10.02
2019-01-14T08:34:48.805Z,10.02
2019-01-14T08:35:47.019Z,9.96
2019-01-14T08:36:42.229Z,9.93
2019-01-14T08:37:56.149Z,9.91
2019-01-14T08:40:04.368Z,9.85
2019-01-14T08:49:54.790Z,9.6
2019-01-14T08:53:50.456Z,9.74
2019-01-14T08:54:55.121Z,9.75
2019-01-14T08:57:54.531Z,9.65
2019-01-14T08:59:05.520Z,9.7
2019-01-14T09:15:14.373Z,7.45
2019-01-14T09:16:09.290Z,7.44
2019-01-14T09:17:32.232Z,7.42
2019-01-14T11:25:23.256Z,12.38
2019-01-14T11:26:55.837Z,12.49
2019-01-14T11:27:37.895Z,12.48
2019-01-14T11:40:54.971Z,9.06
2019-01-14T11:57:50.011Z,7.71
2019-01-14T11:58:32.947Z,7.71
2019-01-14T11:59:15.580Z,7.85
2019-01-14T12:25:49.492Z,9.08
2019-01-14T13:05:26.232Z,13.57
2019-01-14T13:06:19.002Z,13.63
2019-01-14T13:46:35.871Z,10.04
2019-01-14T14:02:46.242Z,10.14
2019-01-14T14:03:29.058Z,10.07
2019-01-14T14:04:11.670Z,10.14
2019-01-14T14:04:53.291Z,10.13
2019-01-14T14:05:38.917Z,10.13
2019-01-14T14:06:21.489Z,10.02
2019-01-14T14:07:08.975Z,10.09
2019-01-14T14:07:55.305Z,10.09
2019-01-14T14:08:41.245Z,10.04
2019-01-14T14:09:30.344Z,9.99
2019-01-14T14:10:13.414Z,9.77
2019-01-14T15:20:02.874Z,9.71
2019-01-14T15:22:45.009Z,9.88
2019-01-14T15:24:04.905Z,9.8
2019-01-14T15:24:46.099Z,9.75
2019-01-14T15:25:28.576Z,9.75
2019-01-14T15:26:28.032Z,9.83
2019-01-14T15:27:10.691Z,9.96
2019-01-14T15:27:53.005Z,10.09
2019-01-14T15:28:38.418Z,10.04
2019-01-14T15:29:31.405Z,10.04
2019-01-14T15:30:15.345Z,9.95
2019-01-14T15:30:56.959Z,9.98
2019-01-14T15:31:39.106Z,9.96
2019-01-14T15:32:21.474Z,9.98
2019-01-14T15:33:06.240Z,10.01
2019-01-14T15:33:48.156Z,9.93
2019-01-14T15:34:30.226Z,9.95
2019-01-14T15:35:20.915Z,9.99
2019-01-14T16:20:45.126Z,9.27
2019-01-14T16:22:25.000Z,8.98
2019-01-14T16:24:46.882Z,8.93
2019-01-14T16:25:27.454Z,8.83
2019-01-14T16:26:09.003Z,8.88
2019-01-14T16:26:49.569Z,8.8
2019-01-14T16:27:30.195Z,8.83
2019-01-14T16:28:10.636Z,8.73
2019-01-14T16:28:53.813Z,8.8
2019-01-14T16:30:55.960Z,8.75
2019-01-14T16:32:02.402Z,8.76
2019-01-14T18:36:18.979Z,8.27
2019-01-14T19:00:44.335Z,8.18
2019-01-14T19:01:26.584Z,8.29
2019-01-14T19:05:05.336Z,8.34
2019-01-14T19:05:47.686Z,8.18
2019-01-14T19:06:31.173Z,8.22
2019-01-14T19:07:11.576Z,8.28
2019-01-14T19:07:52.095Z,8.31
2019-01-14T19:11:38.030Z,8.4
2019-01-14T19:12:23.512Z,8.55
2019-01-14T21:40:23.870Z,7.94
2019-01-14T21:41:10.465Z,7.96
2019-01-14T21:43:19.048Z,8.02
